createdAt,value
2018-06-11T00:02:06.427Z,12.70
2018-06-11T00:04:35.065Z,12.20
2018-06-11T00:07:03.610Z,14.30
2018-06-11T00:09:32.273Z,11.53
2018-06-11T00:12:00.922Z,13.95
2018-06-11T00:14:29.110Z,11.10
2018-06-11T00:16:58.773Z,13.30
2018-06-11T00:19:27.293Z,15.67
2018-06-11T00:21:55.604Z,11.20
2018-06-11T00:24:24.211Z,19.13
2018-06-11T00:26:53.282Z,13.93
2018-06-11T00:29:21.786Z,16.50
2018-06-11T00:31:50.634Z,12.23
2018-06-11T00:34:19.147Z,13.53
2018-06-11T00:36:47.636Z,16.10
2018-06-11T00:39:16.205Z,20.23
2018-06-11T00:41:44.723Z,14.23
2018-06-11T00:44:13.229Z,15.70
2018-06-11T00:46:41.930Z,12.57
2018-06-11T00:49:10.441Z,15.13
2018-06-11T00:51:38.998Z,18.40
2018-06-11T00:54:07.870Z,12.10
2018-06-11T00:56:36.415Z,15.40
2018-06-11T00:59:05.034Z,11.60
2018-06-11T01:01:33.513Z,11.23
2018-06-11T01:04:02.044Z,16.27
2018-06-11T01:06:30.528Z,15.67
2018-06-11T01:08:59.077Z,13.90
2018-06-11T01:11:27.622Z,12.63
2018-06-11T01:13:56.160Z,21.13
2018-06-11T01:16:24.780Z,18.83
2018-06-11T01:18:53.300Z,13.00
2018-06-11T01:21:21.792Z,20.57
2018-06-11T01:23:50.380Z,15.23
2018-06-11T01:26:18.917Z,16.23
2018-06-11T01:28:47.461Z,13.20
2018-06-11T01:31:16.021Z,17.30
2018-06-11T01:33:44.585Z,14.60
2018-06-11T01:36:13.042Z,16.43
2018-06-11T01:38:41.561Z,14.87
2018-06-11T01:41:10.043Z,16.60
2018-06-11T01:43:38.559Z,14.83
2018-06-11T01:46:06.928Z,16.80
2018-06-11T01:48:35.448Z,16.17
2018-06-11T01:51:04.004Z,15.60
2018-06-11T01:53:32.526Z,19.20
2018-06-11T01:56:01.019Z,14.33
2018-06-11T01:58:29.553Z,15.17
2018-06-11T02:00:58.081Z,17.80
2018-06-11T02:03:26.619Z,14.50
2018-06-11T02:05:55.234Z,19.93
2018-06-11T02:08:23.888Z,16.87
2018-06-11T02:10:52.421Z,15.70
2018-06-11T02:13:20.909Z,17.33
2018-06-11T02:15:49.277Z,20.67
2018-06-11T02:18:17.833Z,20.70
2018-06-11T02:20:46.430Z,21.03
2018-06-11T02:23:15.144Z,17.73
2018-06-11T02:25:43.816Z,21.57
2018-06-11T02:28:12.367Z,22.43
2018-06-11T02:30:41.186Z,21.30
2018-06-11T02:33:09.751Z,22.47
2018-06-11T02:35:38.262Z,19.97
2018-06-11T02:38:06.843Z,23.40
2018-06-11T02:40:35.159Z,19.03
2018-06-11T02:43:04.956Z,24.37
2018-06-11T02:45:33.462Z,25.47
2018-06-11T02:48:01.941Z,22.47
2018-06-11T02:50:30.460Z,20.57
2018-06-11T02:52:58.987Z,24.37
2018-06-11T02:55:27.491Z,22.60
2018-06-11T02:57:56.038Z,25.60
2018-06-11T03:00:24.556Z,26.83
2018-06-11T03:02:53.077Z,18.10
2018-06-11T03:05:21.574Z,22.40
2018-06-11T03:07:50.100Z,22.23
2018-06-11T03:10:18.627Z,21.93
2018-06-11T03:12:47.128Z,23.67
2018-06-11T03:15:15.721Z,22.13
2018-06-11T03:17:45.114Z,22.00
2018-06-11T03:20:14.442Z,19.43
2018-06-11T03:22:42.941Z,23.87
2018-06-11T03:25:11.480Z,19.27
2018-06-11T03:27:40.040Z,18.83
2018-06-11T03:30:08.606Z,20.33
2018-06-11T03:32:37.306Z,23.07
2018-06-11T03:35:05.930Z,13.83
2018-06-11T03:37:34.705Z,17.47
2018-06-11T03:40:03.280Z,16.10
2018-06-11T03:42:31.813Z,16.77
2018-06-11T03:45:00.411Z,14.83
2018-06-11T03:47:28.935Z,17.20
2018-06-11T03:49:57.427Z,16.37
2018-06-11T03:52:26.203Z,14.60
2018-06-11T03:54:54.709Z,11.53
2018-06-11T03:57:23.241Z,16.30
2018-06-11T03:59:51.913Z,14.50
2018-06-11T04:02:21.271Z,16.57
2018-06-11T04:04:49.823Z,13.17
2018-06-11T04:07:18.335Z,12.10
2018-06-11T04:09:47.597Z,12.93
2018-06-11T04:12:16.126Z,13.77
2018-06-11T04:14:44.641Z,14.33
2018-06-11T04:17:13.189Z,13.50
2018-06-11T04:19:41.684Z,11.93
2018-06-11T04:22:10.417Z,11.70
2018-06-11T04:24:38.908Z,12.97
2018-06-11T04:27:07.454Z,14.43
2018-06-11T04:29:35.940Z,13.17
2018-06-11T04:32:04.509Z,13.03
2018-06-11T04:34:33.040Z,11.47
2018-06-11T04:37:01.573Z,12.33
2018-06-11T04:39:30.084Z,10.57
2018-06-11T04:41:58.568Z,14.83
2018-06-11T04:44:27.374Z,13.17
2018-06-11T04:46:56.011Z,12.83
2018-06-11T04:49:24.496Z,12.87
2018-06-11T04:51:53.046Z,13.27
2018-06-11T04:54:22.285Z,14.47
2018-06-11T04:56:50.813Z,13.03
2018-06-11T04:59:19.994Z,12.33
2018-06-11T05:01:48.734Z,13.37
2018-06-11T05:04:17.253Z,12.77
2018-06-11T05:06:45.778Z,16.43
2018-06-11T05:09:14.289Z,16.03
2018-06-11T05:11:42.760Z,16.37
2018-06-11T05:14:11.298Z,13.33
2018-06-11T05:16:39.826Z,14.03
2018-06-11T05:19:08.467Z,11.47
2018-06-11T05:21:37.048Z,13.03
2018-06-11T05:24:05.638Z,11.97
2018-06-11T05:26:34.134Z,12.93
2018-06-11T05:29:02.872Z,13.57
2018-06-11T05:31:31.829Z,12.33
2018-06-11T05:34:00.377Z,15.17
2018-06-11T05:36:28.882Z,13.40
2018-06-11T05:38:57.595Z,13.80
2018-06-11T05:41:26.206Z,15.17
2018-06-11T05:43:54.945Z,13.78
2018-06-11T05:46:23.447Z,14.83
2018-06-11T05:48:51.967Z,12.20
2018-06-11T05:51:20.691Z,11.83
2018-06-11T05:53:49.260Z,12.43
2018-06-11T05:56:17.815Z,12.70
2018-06-11T05:58:46.605Z,15.77
2018-06-11T06:01:15.391Z,12.60
2018-06-11T06:03:43.941Z,13.63
2018-06-11T06:06:12.509Z,13.73
2018-06-11T06:08:41.181Z,13.33
2018-06-11T06:11:09.753Z,13.30
2018-06-11T06:13:38.527Z,15.70
2018-06-11T06:16:07.089Z,11.93
2018-06-11T06:18:35.795Z,16.07
2018-06-11T06:21:04.301Z,12.63
2018-06-11T06:23:32.844Z,14.90
2018-06-11T06:26:01.643Z,13.40
2018-06-11T06:28:30.254Z,13.80
2018-06-11T06:30:58.757Z,13.83
2018-06-11T06:33:27.265Z,15.87
2018-06-11T06:35:56.068Z,14.73
2018-06-11T06:38:24.621Z,13.30
2018-06-11T06:40:53.147Z,12.20
2018-06-11T06:43:21.865Z,11.80
2018-06-11T06:45:50.685Z,16.27
2018-06-11T06:48:19.220Z,14.90
2018-06-11T06:50:47.712Z,15.27
2018-06-11T06:53:16.292Z,13.70
2018-06-11T06:55:44.861Z,16.40
2018-06-11T06:58:13.655Z,14.67
2018-06-11T07:00:42.165Z,13.33
2018-06-11T07:03:10.712Z,14.57
2018-06-11T07:05:39.231Z,12.43
2018-06-11T07:08:07.793Z,13.23
2018-06-11T07:10:36.691Z,11.87
2018-06-11T07:13:05.237Z,13.90
2018-06-11T07:15:33.777Z,12.77
2018-06-11T07:18:02.499Z,14.43
2018-06-11T07:20:31.103Z,12.13
2018-06-11T07:22:59.319Z,12.43
2018-06-11T07:25:27.808Z,12.70
2018-06-11T07:27:56.333Z,14.10
2018-06-11T07:30:25.231Z,12.57
2018-06-11T07:32:53.636Z,13.30
2018-06-11T07:35:22.332Z,12.87
2018-06-11T07:37:50.826Z,11.80
2018-06-11T07:40:19.355Z,12.57
2018-06-11T07:42:47.641Z,11.40
2018-06-11T07:45:16.349Z,12.00
2018-06-11T07:47:46.074Z,11.37
2018-06-11T07:50:14.638Z,11.07
2018-06-11T07:52:43.142Z,12.03
2018-06-11T07:55:12.024Z,10.20
2018-06-11T07:57:40.562Z,10.53
2018-06-11T08:00:09.156Z,9.87
2018-06-11T08:02:37.922Z,10.80
2018-06-11T08:05:06.812Z,10.17
2018-06-11T08:07:35.344Z,10.90
2018-06-11T08:10:03.966Z,11.30
2018-06-11T08:12:32.800Z,9.67
2018-06-11T08:15:01.334Z,10.70
2018-06-11T08:17:29.879Z,9.93
2018-06-11T08:19:58.373Z,11.73
2018-06-11T08:22:26.925Z,9.80
2018-06-11T08:24:55.446Z,9.67
2018-06-11T08:27:24.168Z,10.90
2018-06-11T08:29:52.645Z,10.07
2018-06-11T08:32:21.173Z,12.77
2018-06-11T08:34:49.710Z,9.60
2018-06-11T08:37:18.225Z,9.90
2018-06-11T08:39:46.761Z,9.63
2018-06-11T08:42:15.309Z,10.67
2018-06-11T08:44:43.847Z,12.23
2018-06-11T08:47:12.404Z,10.97
2018-06-11T08:49:41.007Z,7.97
2018-06-11T08:52:09.561Z,8.50
2018-06-11T08:54:38.087Z,9.23
2018-06-11T08:57:06.568Z,8.63
2018-06-11T08:59:35.103Z,10.00
2018-06-11T09:02:03.307Z,11.80
2018-06-11T09:04:31.817Z,9.17
2018-06-11T09:07:00.323Z,10.03
2018-06-11T09:09:28.871Z,9.03
2018-06-11T09:11:57.414Z,10.10
2018-06-11T09:14:25.874Z,8.87
2018-06-11T09:16:54.458Z,9.57
2018-06-11T09:19:22.968Z,8.90
2018-06-11T09:21:51.470Z,8.37
2018-06-11T09:24:19.962Z,7.67
2018-06-11T09:26:49.191Z,8.30
2018-06-11T09:29:17.657Z,6.93
2018-06-11T09:31:46.162Z,8.13
2018-06-11T09:34:14.910Z,6.80
2018-06-11T09:36:43.449Z,8.20
2018-06-11T09:39:11.905Z,9.77
2018-06-11T09:41:40.419Z,8.67
2018-06-11T09:44:08.983Z,7.97
2018-06-11T09:46:37.483Z,7.73
2018-06-11T09:49:06.050Z,10.73
2018-06-11T09:51:34.615Z,7.70
2018-06-11T09:54:03.377Z,8.40
2018-06-11T09:56:32.026Z,7.20
2018-06-11T09:59:00.582Z,6.87
2018-06-11T10:01:29.316Z,8.23
2018-06-11T10:03:57.861Z,7.53
2018-06-11T10:06:26.337Z,8.23
2018-06-11T10:08:54.836Z,8.47
2018-06-11T10:11:23.296Z,6.73
2018-06-11T10:13:52.427Z,7.47
2018-06-11T10:16:21.163Z,7.33
2018-06-11T10:18:51.598Z,8.37
2018-06-11T10:21:20.372Z,7.13
2018-06-11T10:23:49.804Z,8.37
2018-06-11T10:26:18.318Z,7.50
2018-06-11T10:28:47.043Z,8.43
2018-06-11T10:31:15.679Z,8.00
2018-06-11T10:33:44.240Z,8.80
2018-06-11T10:36:12.731Z,6.97
2018-06-11T10:38:41.465Z,7.70
2018-06-11T10:41:10.279Z,6.20
2018-06-11T10:43:38.782Z,7.73
2018-06-11T10:46:07.885Z,7.77
2018-06-11T10:48:36.636Z,6.50
2018-06-11T10:51:05.282Z,6.40
2018-06-11T10:53:33.824Z,8.03
2018-06-11T10:56:02.429Z,5.40
2018-06-11T10:58:31.175Z,5.50
2018-06-11T11:00:59.820Z,6.33
2018-06-11T11:03:28.441Z,5.20
2018-06-11T11:05:57.157Z,6.70
2018-06-11T11:08:25.624Z,5.30
2018-06-11T11:10:54.355Z,5.50
2018-06-11T11:13:22.849Z,6.60
2018-06-11T11:15:51.549Z,4.40
2018-06-11T11:18:20.235Z,6.90
2018-06-11T11:20:48.847Z,7.67
2018-06-11T11:23:17.627Z,7.10
2018-06-11T11:25:46.293Z,6.63
2018-06-11T11:28:14.801Z,6.13
2018-06-11T11:30:43.353Z,6.33
2018-06-11T11:33:12.041Z,4.50
2018-06-11T11:35:40.539Z,5.10
2018-06-11T11:38:09.080Z,6.67
2018-06-11T11:40:37.737Z,7.47
2018-06-11T11:43:06.893Z,5.37
2018-06-11T11:45:35.399Z,4.63
2018-06-11T11:48:03.678Z,5.47
2018-06-11T11:50:32.161Z,5.70
2018-06-11T11:53:00.489Z,7.20
2018-06-11T11:55:29.001Z,6.13
2018-06-11T11:57:57.558Z,6.00
2018-06-11T12:00:26.084Z,6.90
2018-06-11T12:02:54.585Z,6.47
2018-06-11T12:05:23.124Z,6.83
2018-06-11T12:07:51.648Z,5.80
2018-06-11T12:10:20.449Z,5.80
2018-06-11T12:12:48.985Z,4.57
2018-06-11T12:15:17.496Z,5.10
2018-06-11T12:17:46.364Z,7.67
2018-06-11T12:20:14.889Z,10.97
2018-06-11T12:22:43.816Z,9.53
2018-06-11T12:25:12.192Z,10.70
2018-06-11T12:27:40.338Z,11.93
2018-06-11T12:30:09.317Z,12.03
2018-06-11T12:32:38.008Z,11.47
2018-06-11T12:35:06.659Z,11.83
2018-06-11T12:37:35.226Z,12.27
2018-06-11T12:40:03.861Z,9.47
2018-06-11T12:42:32.510Z,11.47
2018-06-11T12:45:01.130Z,11.57
2018-06-11T12:47:29.675Z,8.80
2018-06-11T12:49:58.477Z,11.07
2018-06-11T12:52:26.971Z,9.83
2018-06-11T12:54:55.723Z,11.53
2018-06-11T12:57:24.241Z,14.70
2018-06-11T12:59:52.777Z,11.20
2018-06-11T13:02:21.904Z,9.93
2018-06-11T13:04:50.780Z,8.57
2018-06-11T13:07:19.447Z,12.87
2018-06-11T13:09:49.174Z,10.77
2018-06-11T13:12:18.178Z,13.00
2018-06-11T13:14:46.927Z,10.87
2018-06-11T13:17:15.559Z,9.93
2018-06-11T13:19:44.084Z,9.53
2018-06-11T13:22:13.130Z,11.50
2018-06-11T13:24:41.870Z,11.50
2018-06-11T13:27:10.442Z,11.33
2018-06-11T13:29:39.006Z,8.60
2018-06-11T13:32:07.474Z,8.03
2018-06-11T13:34:36.107Z,9.80
2018-06-11T13:37:04.660Z,11.20
2018-06-11T13:39:32.928Z,11.47
2018-06-11T13:42:01.479Z,11.50
2018-06-11T13:44:30.061Z,13.27
2018-06-11T13:46:58.558Z,9.83
2018-06-11T13:49:27.130Z,11.93
2018-06-11T13:51:55.677Z,13.10
2018-06-11T13:54:24.253Z,10.03
2018-06-11T13:56:52.970Z,11.33
2018-06-11T13:59:21.835Z,10.53
2018-06-11T14:01:51.248Z,9.30
2018-06-11T14:04:19.785Z,12.10
2018-06-11T14:06:48.294Z,12.00
2018-06-11T14:09:16.988Z,9.70
2018-06-11T14:11:46.443Z,15.80
2018-06-11T14:14:14.944Z,12.40
2018-06-11T14:16:43.972Z,13.80
2018-06-11T14:19:12.502Z,10.67
2018-06-11T14:24:16.074Z,11.80
2018-06-11T14:26:45.184Z,13.50
2018-06-11T14:29:14.217Z,13.20
2018-06-11T14:31:43.562Z,14.30
2018-06-11T14:34:12.333Z,15.23
2018-06-11T14:36:40.896Z,16.00
2018-06-11T14:39:09.954Z,11.60
2018-06-11T14:41:38.733Z,12.47
2018-06-11T14:44:07.520Z,14.27
2018-06-11T14:46:37.392Z,11.30
2018-06-11T14:49:06.763Z,11.37
2018-06-11T14:51:35.331Z,10.43
2018-06-11T14:54:03.589Z,15.33
2018-06-11T14:56:32.143Z,14.63
2018-06-11T14:59:00.738Z,14.83
2018-06-11T15:01:29.283Z,14.67
2018-06-11T15:03:57.869Z,13.17
2018-06-11T15:06:27.184Z,12.70
2018-06-11T15:08:55.843Z,13.50
2018-06-11T15:11:24.566Z,12.00
2018-06-11T15:13:53.200Z,13.17
2018-06-11T15:16:21.953Z,11.07
2018-06-11T15:18:50.671Z,11.57
2018-06-11T15:21:19.289Z,11.90
2018-06-11T15:23:47.852Z,15.70
2018-06-11T15:26:16.405Z,12.10
2018-06-11T15:28:45.095Z,16.10
2018-06-11T15:31:13.645Z,11.03
2018-06-11T15:33:42.358Z,12.27
2018-06-11T15:36:11.123Z,15.67
2018-06-11T15:38:39.703Z,16.10
2018-06-11T15:41:08.196Z,11.90
2018-06-11T15:43:36.832Z,12.23
2018-06-11T15:46:05.852Z,15.20
2018-06-11T15:48:34.408Z,11.87
2018-06-11T15:51:03.233Z,13.20
2018-06-11T15:53:31.805Z,14.67
2018-06-11T15:56:00.428Z,17.50
2018-06-11T15:58:28.933Z,12.00
2018-06-11T16:00:57.566Z,12.23
2018-06-11T16:03:26.080Z,10.43
2018-06-11T16:05:55.203Z,15.87
2018-06-11T16:08:24.386Z,16.80
2018-06-11T16:10:53.155Z,11.90
2018-06-11T16:13:22.046Z,12.60
2018-06-11T16:15:50.536Z,12.10
2018-06-11T16:18:19.099Z,13.93
2018-06-11T16:20:47.685Z,13.33
2018-06-11T16:23:16.196Z,12.43
2018-06-11T16:25:44.741Z,14.93
2018-06-11T16:28:13.391Z,10.97
2018-06-11T16:30:42.025Z,11.57
2018-06-11T16:33:10.521Z,13.67
2018-06-11T16:35:39.234Z,12.60
2018-06-11T16:38:07.746Z,13.77
2018-06-11T16:40:36.240Z,12.40
2018-06-11T16:43:05.184Z,12.10
2018-06-11T16:45:33.419Z,12.53
2018-06-11T16:48:02.327Z,16.23
2018-06-11T16:50:32.139Z,12.27
2018-06-11T16:53:00.900Z,13.17
2018-06-11T16:55:30.023Z,12.77
2018-06-11T16:57:58.835Z,10.43
2018-06-11T17:00:27.425Z,11.47
2018-06-11T17:02:55.611Z,12.13
2018-06-11T17:05:24.128Z,9.13
2018-06-11T17:07:52.842Z,13.13
2018-06-11T17:10:21.412Z,15.63
2018-06-11T17:12:49.917Z,13.23
2018-06-11T17:15:18.646Z,12.70
2018-06-11T17:17:47.188Z,13.00
2018-06-11T17:20:16.437Z,12.97
2018-06-11T17:22:45.205Z,14.37
2018-06-11T17:25:13.764Z,14.07
2018-06-11T17:27:42.287Z,14.97
2018-06-11T17:30:11.219Z,11.83
2018-06-11T17:32:39.872Z,11.63
2018-06-11T17:35:08.583Z,12.33
2018-06-11T17:37:37.094Z,15.10
2018-06-11T17:40:05.936Z,17.07
2018-06-11T17:42:34.602Z,12.23
2018-06-11T17:45:03.272Z,12.87
2018-06-11T17:47:32.005Z,11.80
2018-06-11T17:50:00.712Z,13.20
2018-06-11T17:52:29.221Z,12.37
2018-06-11T17:54:57.768Z,16.07
2018-06-11T17:57:26.313Z,15.10
2018-06-11T17:59:54.864Z,13.33
2018-06-11T18:02:23.473Z,11.47
2018-06-11T18:04:52.033Z,15.27
2018-06-11T18:07:21.168Z,13.60
2018-06-11T18:09:49.693Z,14.03
2018-06-11T18:12:18.276Z,11.30
2018-06-11T18:14:46.945Z,11.87
2018-06-11T18:17:16.425Z,11.17
2018-06-11T18:19:44.654Z,17.00
2018-06-11T18:22:13.457Z,14.43
2018-06-11T18:24:42.010Z,14.83
2018-06-11T18:27:10.941Z,18.93
2018-06-11T18:29:39.401Z,11.10
2018-06-11T18:32:07.942Z,11.10
2018-06-11T18:34:36.699Z,10.60
2018-06-11T18:37:07.529Z,11.47
2018-06-11T18:39:36.060Z,11.97
2018-06-11T18:42:04.694Z,16.53
2018-06-11T18:44:33.267Z,15.10
2018-06-11T18:47:01.951Z,15.07
2018-06-11T18:49:30.486Z,16.47
2018-06-11T18:51:59.038Z,13.87
2018-06-11T18:54:27.930Z,11.13
2018-06-11T18:56:56.195Z,14.63
2018-06-11T18:59:24.883Z,14.20
2018-06-11T19:01:53.777Z,15.10
2018-06-11T19:04:22.644Z,16.20
2018-06-11T19:06:51.256Z,15.43
2018-06-11T19:09:19.848Z,12.97
2018-06-11T19:11:48.387Z,16.40
2018-06-11T19:14:16.941Z,15.90
2018-06-11T19:16:45.459Z,13.87
2018-06-11T19:19:14.082Z,14.90
2018-06-11T19:21:42.788Z,14.10
2018-06-11T19:24:11.391Z,10.57
2018-06-11T19:26:39.921Z,15.13
2018-06-11T19:29:08.629Z,12.63
2018-06-11T19:31:37.330Z,14.57
2018-06-11T19:34:06.275Z,13.93
2018-06-11T19:36:34.793Z,14.60
2018-06-11T19:39:03.511Z,15.30
2018-06-11T19:41:32.365Z,19.87
2018-06-11T19:44:01.086Z,11.70
2018-06-11T19:46:29.647Z,14.83
2018-06-11T19:48:58.200Z,12.50
2018-06-11T19:51:26.717Z,14.17
2018-06-11T19:53:55.257Z,18.03
2018-06-11T19:56:24.198Z,13.90
2018-06-11T19:58:52.756Z,13.93
2018-06-11T20:01:21.223Z,12.93
2018-06-11T20:03:49.722Z,17.83
2018-06-11T20:06:18.269Z,19.87
2018-06-11T20:08:46.770Z,14.13
2018-06-11T20:11:15.339Z,14.27
2018-06-11T20:13:43.862Z,16.37
2018-06-11T20:16:12.495Z,14.80
2018-06-11T20:18:41.092Z,12.43
2018-06-11T20:21:09.608Z,14.27
2018-06-11T20:23:38.416Z,18.20
2018-06-11T20:26:07.161Z,16.27
2018-06-11T20:28:35.732Z,15.30
2018-06-11T20:31:04.301Z,16.57
2018-06-11T20:33:32.826Z,12.37
2018-06-11T20:36:01.428Z,13.83
2018-06-11T20:38:29.926Z,14.77
2018-06-11T20:40:58.479Z,17.20
2018-06-11T20:43:27.001Z,15.07
2018-06-11T20:45:55.670Z,17.30
2018-06-11T20:49:53.422Z,14.07
2018-06-11T20:52:21.929Z,13.40
2018-06-11T20:54:50.562Z,17.20
2018-06-11T20:57:19.075Z,14.53
2018-06-11T20:59:47.990Z,13.20
2018-06-11T21:02:16.539Z,13.10
2018-06-11T21:04:44.815Z,16.60
2018-06-11T21:07:13.392Z,15.97
2018-06-11T21:09:42.342Z,13.07
2018-06-11T21:12:10.892Z,20.53
2018-06-11T21:14:39.527Z,15.70
2018-06-11T21:17:08.113Z,18.27
2018-06-11T21:19:36.745Z,17.33
2018-06-11T21:22:05.277Z,16.93
2018-06-11T21:24:33.881Z,14.00
2018-06-11T21:27:02.581Z,15.47
2018-06-11T21:29:31.670Z,20.60
2018-06-11T21:32:00.219Z,16.77
2018-06-11T21:34:28.756Z,12.83
2018-06-11T21:36:57.341Z,14.50
2018-06-11T21:39:25.875Z,16.67
2018-06-11T21:41:54.626Z,15.07
2018-06-11T21:44:23.438Z,16.57
2018-06-11T21:46:52.085Z,17.93
2018-06-11T21:49:20.590Z,13.47
2018-06-11T21:51:49.137Z,19.73
2018-06-11T21:54:17.688Z,17.10
2018-06-11T21:56:46.188Z,17.23
2018-06-11T21:59:14.702Z,18.93
2018-06-11T22:01:43.234Z,19.17
2018-06-11T22:04:11.892Z,18.87
2018-06-11T22:06:40.384Z,17.83
2018-06-11T22:09:09.606Z,15.90
2018-06-11T22:11:38.158Z,17.97
2018-06-11T22:14:06.363Z,19.60
2018-06-11T22:16:34.878Z,15.53
2018-06-11T22:19:03.452Z,19.27
2018-06-11T22:21:31.976Z,16.93
2018-06-11T22:24:00.279Z,18.07
2018-06-11T22:26:29.779Z,22.57
2018-06-11T22:28:58.284Z,20.23
2018-06-11T22:31:26.821Z,16.37
2018-06-11T22:33:55.332Z,19.47
2018-06-11T22:36:23.873Z,19.70
2018-06-11T22:38:52.530Z,19.83
2018-06-11T22:41:21.088Z,21.33
2018-06-11T22:43:49.635Z,19.13
2018-06-11T22:46:18.093Z,22.67
2018-06-11T22:48:46.679Z,19.97
2018-06-11T22:51:15.198Z,23.37
2018-06-11T22:53:43.701Z,19.47
2018-06-11T22:56:12.223Z,21.83
2018-06-11T22:58:40.761Z,21.37
2018-06-11T23:01:09.285Z,21.70
2018-06-11T23:03:37.817Z,17.03
2018-06-11T23:06:06.340Z,24.63
2018-06-11T23:08:35.404Z,20.37
2018-06-11T23:11:04.266Z,21.10
2018-06-11T23:13:33.164Z,22.30
2018-06-11T23:16:01.691Z,22.57
2018-06-11T23:18:30.190Z,18.83
2018-06-11T23:20:58.916Z,17.23
2018-06-11T23:23:27.419Z,27.53
2018-06-11T23:25:56.471Z,22.13
2018-06-11T23:28:25.006Z,20.60
2018-06-11T23:30:53.509Z,22.57
2018-06-11T23:33:22.333Z,21.57
2018-06-11T23:35:50.784Z,16.47
2018-06-11T23:38:19.378Z,20.37
2018-06-11T23:40:49.407Z,24.67
2018-06-11T23:43:18.330Z,21.93
2018-06-11T23:45:47.042Z,24.50
2018-06-11T23:48:15.864Z,24.20
2018-06-11T23:50:44.394Z,25.67
2018-06-11T23:53:12.905Z,23.53
2018-06-11T23:55:41.454Z,24.00
2018-06-11T23:58:09.987Z,19.73
